sensor_id;sensor_type;location;lat;lon;timestamp;pressure;altitude;pressure_sealevel;temperature;humidity
20628;BME280;10473;42.734;24.258;2023-01-29T00:01:38;91707.88;;;-0.32;83.35
20628;BME280;10473;42.734;24.258;2023-01-29T00:04:06;91746.19;;;-0.07;83.42
20628;BME280;10473;42.734;24.258;2023-01-29T00:06:36;91749.84;;;-0.08;83.18
20628;BME280;10473;42.734;24.258;2023-01-29T00:09:05;91756.13;;;-0.09;83.36
20628;BME280;10473;42.734;24.258;2023-01-29T00:11:34;91758.28;;;-0.19;84.23
20628;BME280;10473;42.734;24.258;2023-01-29T00:14:02;91744.63;;;-0.25;83.69
20628;BME280;10473;42.734;24.258;2023-01-29T00:16:30;91761.16;;;-0.29;85.14
20628;BME280;10473;42.734;24.258;2023-01-29T00:18:59;91761.75;;;-0.32;84.73
20628;BME280;10473;42.734;24.258;2023-01-29T00:21:27;91757.50;;;-0.20;84.41
20628;BME280;10473;42.734;24.258;2023-01-29T00:23:58;91756.13;;;-0.17;84.15
20628;BME280;10473;42.734;24.258;2023-01-29T00:26:26;91759.81;;;-0.10;84.45
20628;BME280;10473;42.734;24.258;2023-01-29T00:28:55;91766.25;;;-0.07;84.02
20628;BME280;10473;42.734;24.258;2023-01-29T00:31:25;91767.31;;;-0.08;84.25
20628;BME280;10473;42.734;24.258;2023-01-29T00:33:53;91771.00;;;-0.09;83.72
20628;BME280;10473;42.734;24.258;2023-01-29T00:36:21;91727.47;;;-0.26;83.87
20628;BME280;10473;42.734;24.258;2023-01-29T00:38:54;91759.50;;;-0.17;83.83
20628;BME280;10473;42.734;24.258;2023-01-29T00:41:27;91762.56;;;-0.06;83.74
20628;BME280;10473;42.734;24.258;2023-01-29T00:44:14;91766.09;;;-0.11;83.66
20628;BME280;10473;42.734;24.258;2023-01-29T00:46:59;91766.84;;;-0.10;84.40
20628;BME280;10473;42.734;24.258;2023-01-29T00:49:27;91765.94;;;-0.14;84.42
20628;BME280;10473;42.734;24.258;2023-01-29T00:51:55;91767.63;;;-0.10;84.39
20628;BME280;10473;42.734;24.258;2023-01-29T00:54:41;91757.41;;;0.03;84.25
20628;BME280;10473;42.734;24.258;2023-01-29T00:57:10;91769.63;;;0.10;82.93
20628;BME280;10473;42.734;24.258;2023-01-29T00:59:38;91758.13;;;-0.06;83.03
20628;BME280;10473;42.734;24.258;2023-01-29T01:02:06;91761.03;;;-0.16;83.97
20628;BME280;10473;42.734;24.258;2023-01-29T01:04:52;91763.19;;;-0.09;83.73
20628;BME280;10473;42.734;24.258;2023-01-29T01:07:20;91753.88;;;-0.02;83.87
20628;BME280;10473;42.734;24.258;2023-01-29T01:09:48;91763.00;;;-0.13;82.96
20628;BME280;10473;42.734;24.258;2023-01-29T01:12:34;91752.94;;;-0.06;83.33
20628;BME280;10473;42.734;24.258;2023-01-29T01:15:02;91755.69;;;-0.02;83.42
20628;BME280;10473;42.734;24.258;2023-01-29T01:17:31;91761.81;;;0.02;82.76
20628;BME280;10473;42.734;24.258;2023-01-29T01:19:58;91744.81;;;-0.04;82.87
20628;BME280;10473;42.734;24.258;2023-01-29T01:22:26;91746.50;;;-0.17;82.85
20628;BME280;10473;42.734;24.258;2023-01-29T01:24:54;91758.28;;;-0.02;83.46
20628;BME280;10473;42.734;24.258;2023-01-29T01:27:22;91756.59;;;-0.07;82.96
20628;BME280;10473;42.734;24.258;2023-01-29T01:29:52;91759.06;;;-0.02;83.17
20628;BME280;10473;42.734;24.258;2023-01-29T01:32:20;91755.22;;;-0.04;82.24
20628;BME280;10473;42.734;24.258;2023-01-29T01:34:47;91750.78;;;-0.04;82.16
20628;BME280;10473;42.734;24.258;2023-01-29T01:37:15;91755.97;;;-0.04;81.92
20628;BME280;10473;42.734;24.258;2023-01-29T01:39:43;91751.72;;;0.00;82.61
20628;BME280;10473;42.734;24.258;2023-01-29T01:42:15;91751.22;;;-0.10;82.83
20628;BME280;10473;42.734;24.258;2023-01-29T01:45:02;91737.91;;;-0.17;82.44
20628;BME280;10473;42.734;24.258;2023-01-29T01:47:36;91745.56;;;-0.21;82.45
20628;BME280;10473;42.734;24.258;2023-01-29T01:50:08;91747.53;;;-0.26;83.76
20628;BME280;10473;42.734;24.258;2023-01-29T01:52:41;91750.16;;;-0.09;83.43
20628;BME280;10473;42.734;24.258;2023-01-29T01:55:12;91748.16;;;-0.04;82.76
20628;BME280;10473;42.734;24.258;2023-01-29T01:57:42;91754.47;;;-0.05;82.48
20628;BME280;10473;42.734;24.258;2023-01-29T02:00:16;91751.06;;;-0.05;83.08
20628;BME280;10473;42.734;24.258;2023-01-29T02:02:45;91743.59;;;-0.07;83.35
20628;BME280;10473;42.734;24.258;2023-01-29T02:05:32;91742.81;;;0.01;83.19
20628;BME280;10473;42.734;24.258;2023-01-29T02:08:30;91746.97;;;0.03;83.05
20628;BME280;10473;42.734;24.258;2023-01-29T02:11:18;91731.47;;;-0.20;82.32
20628;BME280;10473;42.734;24.258;2023-01-29T02:13:47;91748.31;;;-0.09;82.34
20628;BME280;10473;42.734;24.258;2023-01-29T02:16:26;91747.25;;;-0.08;83.03
20628;BME280;10473;42.734;24.258;2023-01-29T02:18:55;91735.63;;;-0.02;82.98
20628;BME280;10473;42.734;24.258;2023-01-29T02:21:39;91746.19;;;0.10;82.95
20628;BME280;10473;42.734;24.258;2023-01-29T02:24:31;91734.56;;;-0.01;82.79
20628;BME280;10473;42.734;24.258;2023-01-29T02:27:08;91748.03;;;0.01;82.05
20628;BME280;10473;42.734;24.258;2023-01-29T02:29:51;91747.59;;;0.08;82.62
20628;BME280;10473;42.734;24.258;2023-01-29T02:32:27;91742.81;;;0.01;82.12
20628;BME280;10473;42.734;24.258;2023-01-29T02:35:08;91737.47;;;0.06;82.12
20628;BME280;10473;42.734;24.258;2023-01-29T02:38:02;91747.72;;;0.11;82.42
20628;BME280;10473;42.734;24.258;2023-01-29T02:40:36;91750.03;;;0.13;81.72
20628;BME280;10473;42.734;24.258;2023-01-29T02:43:15;91747.72;;;0.11;82.25
20628;BME280;10473;42.734;24.258;2023-01-29T02:45:52;91745.91;;;0.20;81.92
20628;BME280;10473;42.734;24.258;2023-01-29T02:48:30;91750.47;;;-0.11;82.10
20628;BME280;10473;42.734;24.258;2023-01-29T02:51:04;91747.88;;;0.06;82.52
20628;BME280;10473;42.734;24.258;2023-01-29T02:53:38;91750.81;;;0.13;82.19
20628;BME280;10473;42.734;24.258;2023-01-29T02:56:10;91756.47;;;0.15;81.84
20628;BME280;10473;42.734;24.258;2023-01-29T02:58:42;91742.19;;;-0.13;82.26
20628;BME280;10473;42.734;24.258;2023-01-29T03:01:16;91756.19;;;0.17;81.71
20628;BME280;10473;42.734;24.258;2023-01-29T03:03:49;91757.25;;;0.24;82.01
20628;BME280;10473;42.734;24.258;2023-01-29T03:06:21;91754.34;;;0.17;81.42
20628;BME280;10473;42.734;24.258;2023-01-29T03:08:55;91739.47;;;0.09;81.02
20628;BME280;10473;42.734;24.258;2023-01-29T03:11:26;91758.63;;;0.22;81.29
20628;BME280;10473;42.734;24.258;2023-01-29T03:13:59;91738.84;;;0.04;81.55
20628;BME280;10473;42.734;24.258;2023-01-29T03:16:33;91763.53;;;0.23;81.40
20628;BME280;10473;42.734;24.258;2023-01-29T03:19:06;91759.22;;;0.19;81.12
20628;BME280;10473;42.734;24.258;2023-01-29T03:21:38;91776.56;;;0.15;82.13
20628;BME280;10473;42.734;24.258;2023-01-29T03:24:31;91769.03;;;0.13;82.05
20628;BME280;10473;42.734;24.258;2023-01-29T03:27:23;91767.66;;;0.08;82.42
20628;BME280;10473;42.734;24.258;2023-01-29T03:30:13;91773.75;;;0.03;81.80
20628;BME280;10473;42.734;24.258;2023-01-29T03:33:14;91775.88;;;-0.08;81.66
20628;BME280;10473;42.734;24.258;2023-01-29T03:35:48;91778.19;;;-0.06;82.27
20628;BME280;10473;42.734;24.258;2023-01-29T03:38:19;91762.13;;;-0.08;82.16
20628;BME280;10473;42.734;24.258;2023-01-29T03:40:51;91779.84;;;-0.19;83.64
20628;BME280;10473;42.734;24.258;2023-01-29T03:43:27;91784.16;;;-0.14;83.65
20628;BME280;10473;42.734;24.258;2023-01-29T03:46:03;91771.25;;;-0.28;83.24
20628;BME280;10473;42.734;24.258;2023-01-29T03:48:37;91774.63;;;-0.19;83.64
20628;BME280;10473;42.734;24.258;2023-01-29T03:51:18;91762.97;;;-0.30;84.29
20628;BME280;10473;42.734;24.258;2023-01-29T03:53:53;91781.84;;;-0.16;82.92
20628;BME280;10473;42.734;24.258;2023-01-29T03:56:34;91781.38;;;-0.18;83.97
20628;BME280;10473;42.734;24.258;2023-01-29T03:59:17;91767.47;;;-0.13;83.89
20628;BME280;10473;42.734;24.258;2023-01-29T04:02:09;91748.28;;;-0.34;83.57
20628;BME280;10473;42.734;24.258;2023-01-29T04:04:42;91772.94;;;-0.23;84.48
20628;BME280;10473;42.734;24.258;2023-01-29T04:07:15;91768.84;;;-0.16;84.27
20628;BME280;10473;42.734;24.258;2023-01-29T04:09:48;91767.47;;;-0.13;84.23
20628;BME280;10473;42.734;24.258;2023-01-29T04:12:20;91784.16;;;-0.06;84.43
20628;BME280;10473;42.734;24.258;2023-01-29T04:14:51;91779.28;;;0.01;83.78
20628;BME280;10473;42.734;24.258;2023-01-29T04:17:23;91774.69;;;-0.02;84.11
20628;BME280;10473;42.734;24.258;2023-01-29T04:20:05;91775.00;;;0.05;83.20
20628;BME280;10473;42.734;24.258;2023-01-29T04:22:34;91778.81;;;0.08;83.60
20628;BME280;10473;42.734;24.258;2023-01-29T04:25:05;91781.72;;;-0.11;83.80
20628;BME280;10473;42.734;24.258;2023-01-29T04:27:48;91780.03;;;-0.07;83.91
20628;BME280;10473;42.734;24.258;2023-01-29T04:30:24;91776.81;;;-0.04;83.72
20628;BME280;10473;42.734;24.258;2023-01-29T04:33:02;91789.53;;;-0.11;84.61
20628;BME280;10473;42.734;24.258;2023-01-29T04:35:46;91777.41;;;-0.15;84.97
20628;BME280;10473;42.734;24.258;2023-01-29T04:38:23;91780.94;;;-0.11;83.81
20628;BME280;10473;42.734;24.258;2023-01-29T04:41:01;91790.72;;;-0.17;83.78
20628;BME280;10473;42.734;24.258;2023-01-29T04:43:38;91793.91;;;-0.28;83.70
20628;BME280;10473;42.734;24.258;2023-01-29T04:46:14;91792.69;;;-0.31;84.04
20628;BME280;10473;42.734;24.258;2023-01-29T04:48:59;91802.19;;;-0.18;83.67
20628;BME280;10473;42.734;24.258;2023-01-29T04:51:38;91795.19;;;-0.09;83.26
20628;BME280;10473;42.734;24.258;2023-01-29T04:54:15;91792.13;;;-0.11;83.65
20628;BME280;10473;42.734;24.258;2023-01-29T04:56:52;91787.19;;;-0.21;83.91
20628;BME280;10473;42.734;24.258;2023-01-29T04:59:28;91798.19;;;-0.32;85.05
20628;BME280;10473;42.734;24.258;2023-01-29T05:01:58;91807.88;;;-0.16;84.87
20628;BME280;10473;42.734;24.258;2023-01-29T05:04:28;91801.00;;;-0.12;84.41
20628;BME280;10473;42.734;24.258;2023-01-29T05:07:03;91789.66;;;-0.16;84.96
20628;BME280;10473;42.734;24.258;2023-01-29T05:09:33;91796.97;;;-0.18;84.19
20628;BME280;10473;42.734;24.258;2023-01-29T05:12:01;91805.28;;;-0.16;84.60
20628;BME280;10473;42.734;24.258;2023-01-29T05:14:33;91805.06;;;-0.28;84.34
20628;BME280;10473;42.734;24.258;2023-01-29T05:17:04;91793.88;;;-0.37;84.02
20628;BME280;10473;42.734;24.258;2023-01-29T05:19:35;91809.81;;;-0.30;84.30
20628;BME280;10473;42.734;24.258;2023-01-29T05:22:05;91809.50;;;-0.37;85.07
20628;BME280;10473;42.734;24.258;2023-01-29T05:24:36;91814.88;;;-0.25;84.94
20628;BME280;10473;42.734;24.258;2023-01-29T05:27:04;91821.47;;;-0.19;85.07
20628;BME280;10473;42.734;24.258;2023-01-29T05:29:50;91810.59;;;-0.29;84.28
20628;BME280;10473;42.734;24.258;2023-01-29T05:32:18;91824.38;;;-0.20;84.54
20628;BME280;10473;42.734;24.258;2023-01-29T05:34:45;91821.97;;;-0.17;84.17
20628;BME280;10473;42.734;24.258;2023-01-29T05:37:14;91826.84;;;-0.15;84.64
20628;BME280;10473;42.734;24.258;2023-01-29T05:39:42;91825.81;;;-0.14;83.76
20628;BME280;10473;42.734;24.258;2023-01-29T05:42:10;91835.63;;;-0.03;84.28
20628;BME280;10473;42.734;24.258;2023-01-29T05:44:37;91839.63;;;0.03;83.84
20628;BME280;10473;42.734;24.258;2023-01-29T05:47:05;91825.09;;;0.03;83.64
20628;BME280;10473;42.734;24.258;2023-01-29T05:49:33;91841.47;;;0.11;84.10
20628;BME280;10473;42.734;24.258;2023-01-29T05:52:01;91850.56;;;0.22;83.60
20628;BME280;10473;42.734;24.258;2023-01-29T05:54:34;91845.19;;;0.19;82.62
20628;BME280;10473;42.734;24.258;2023-01-29T05:57:02;91839.41;;;-0.17;83.31
20628;BME280;10473;42.734;24.258;2023-01-29T05:59:30;91847.59;;;0.07;83.57
20628;BME280;10473;42.734;24.258;2023-01-29T06:01:57;91835.31;;;-0.10;83.87
20628;BME280;10473;42.734;24.258;2023-01-29T06:04:25;91859.41;;;0.04;83.34
20628;BME280;10473;42.734;24.258;2023-01-29T06:06:53;91862.16;;;0.08;83.40
20628;BME280;10473;42.734;24.258;2023-01-29T06:09:20;91849.94;;;-0.31;84.94
20628;BME280;10473;42.734;24.258;2023-01-29T06:11:49;91878.44;;;-0.17;84.45
20628;BME280;10473;42.734;24.258;2023-01-29T06:14:17;91874.44;;;-0.23;85.11
20628;BME280;10473;42.734;24.258;2023-01-29T06:16:45;91871.16;;;-0.37;85.23
20628;BME280;10473;42.734;24.258;2023-01-29T06:19:13;91880.72;;;-0.24;85.44
20628;BME280;10473;42.734;24.258;2023-01-29T06:21:41;91883.94;;;-0.19;85.70
20628;BME280;10473;42.734;24.258;2023-01-29T06:24:08;91881.84;;;-0.17;85.57
20628;BME280;10473;42.734;24.258;2023-01-29T06:26:36;91891.03;;;-0.11;84.82
20628;BME280;10473;42.734;24.258;2023-01-29T06:29:05;91891.91;;;-0.15;84.90
20628;BME280;10473;42.734;24.258;2023-01-29T06:31:33;91900.50;;;-0.15;85.19
20628;BME280;10473;42.734;24.258;2023-01-29T06:34:01;91902.03;;;-0.14;85.67
20628;BME280;10473;42.734;24.258;2023-01-29T06:36:28;91905.97;;;-0.25;86.00
20628;BME280;10473;42.734;24.258;2023-01-29T06:38:56;91904.78;;;-0.19;86.29
20628;BME280;10473;42.734;24.258;2023-01-29T06:41:24;91910.94;;;-0.15;86.23
20628;BME280;10473;42.734;24.258;2023-01-29T06:43:53;91904.69;;;-0.05;86.15
20628;BME280;10473;42.734;24.258;2023-01-29T06:46:22;91911.13;;;-0.03;85.95
20628;BME280;10473;42.734;24.258;2023-01-29T06:48:49;91918.94;;;-0.03;85.19
20628;BME280;10473;42.734;24.258;2023-01-29T06:51:18;91918.94;;;-0.03;85.09
20628;BME280;10473;42.734;24.258;2023-01-29T06:53:46;91921.44;;;0.03;85.40
20628;BME280;10473;42.734;24.258;2023-01-29T06:56:14;91911.00;;;0.03;85.93
20628;BME280;10473;42.734;24.258;2023-01-29T06:58:42;91909.00;;;-0.01;85.58
20628;BME280;10473;42.734;24.258;2023-01-29T07:01:10;91922.69;;;0.13;85.20
20628;BME280;10473;42.734;24.258;2023-01-29T07:03:40;91921.47;;;0.11;84.90
20628;BME280;10473;42.734;24.258;2023-01-29T07:06:08;91930.22;;;0.15;85.36
20628;BME280;10473;42.734;24.258;2023-01-29T07:08:37;91914.06;;;0.04;85.17
20628;BME280;10473;42.734;24.258;2023-01-29T07:11:06;91916.09;;;0.08;84.75
20628;BME280;10473;42.734;24.258;2023-01-29T07:13:34;91934.38;;;0.24;85.75
20628;BME280;10473;42.734;24.258;2023-01-29T07:16:04;91939.75;;;0.36;85.02
20628;BME280;10473;42.734;24.258;2023-01-29T07:18:32;91932.72;;;0.37;84.72
20628;BME280;10473;42.734;24.258;2023-01-29T07:21:04;91937.66;;;0.47;84.79
20628;BME280;10473;42.734;24.258;2023-01-29T07:23:34;91926.00;;;0.44;83.98
20628;BME280;10473;42.734;24.258;2023-01-29T07:26:02;91928.16;;;0.51;83.37
20628;BME280;10473;42.734;24.258;2023-01-29T07:28:31;91942.56;;;0.48;83.80
20628;BME280;10473;42.734;24.258;2023-01-29T07:31:02;91938.91;;;0.58;83.17
20628;BME280;10473;42.734;24.258;2023-01-29T07:33:29;91938.31;;;0.61;83.54
20628;BME280;10473;42.734;24.258;2023-01-29T07:35:57;91946.78;;;0.67;83.67
20628;BME280;10473;42.734;24.258;2023-01-29T07:38:26;91941.06;;;0.56;83.70
20628;BME280;10473;42.734;24.258;2023-01-29T07:40:54;91947.66;;;0.53;83.16
20628;BME280;10473;42.734;24.258;2023-01-29T07:43:22;91934.91;;;0.52;83.51
20628;BME280;10473;42.734;24.258;2023-01-29T07:45:51;91939.03;;;0.53;83.03
20628;BME280;10473;42.734;24.258;2023-01-29T07:48:19;91926.47;;;0.46;83.34
20628;BME280;10473;42.734;24.258;2023-01-29T07:50:53;91941.56;;;0.67;83.05
20628;BME280;10473;42.734;24.258;2023-01-29T07:53:21;91951.19;;;0.57;83.06
20628;BME280;10473;42.734;24.258;2023-01-29T07:55:51;91962.56;;;0.70;82.93
20628;BME280;10473;42.734;24.258;2023-01-29T07:58:18;91959.63;;;0.63;83.34
20628;BME280;10473;42.734;24.258;2023-01-29T08:00:46;91960.56;;;0.67;82.92
20628;BME280;10473;42.734;24.258;2023-01-29T08:03:16;91970.63;;;0.51;83.39
20628;BME280;10473;42.734;24.258;2023-01-29T08:05:44;91968.16;;;0.46;83.54
20628;BME280;10473;42.734;24.258;2023-01-29T08:08:12;91980.75;;;0.61;83.58
20628;BME280;10473;42.734;24.258;2023-01-29T08:10:40;91989.84;;;0.64;83.79
20628;BME280;10473;42.734;24.258;2023-01-29T08:13:09;91975.31;;;0.72;82.92
20628;BME280;10473;42.734;24.258;2023-01-29T08:15:37;91974.22;;;0.64;83.56
20628;BME280;10473;42.734;24.258;2023-01-29T08:18:05;91978.34;;;0.73;83.71
20628;BME280;10473;42.734;24.258;2023-01-29T08:20:33;91982.78;;;0.64;83.19
20628;BME280;10473;42.734;24.258;2023-01-29T08:23:03;91957.63;;;0.60;83.60
20628;BME280;10473;42.734;24.258;2023-01-29T08:25:31;91976.84;;;0.73;82.47
20628;BME280;10473;42.734;24.258;2023-01-29T08:27:59;91982.69;;;0.87;82.72
20628;BME280;10473;42.734;24.258;2023-01-29T08:30:31;91967.66;;;0.83;82.24
20628;BME280;10473;42.734;24.258;2023-01-29T08:32:59;91977.00;;;0.93;82.65
20628;BME280;10473;42.734;24.258;2023-01-29T08:35:27;91983.31;;;1.00;82.67
20628;BME280;10473;42.734;24.258;2023-01-29T08:37:55;91984.06;;;0.84;82.79
20628;BME280;10473;42.734;24.258;2023-01-29T08:40:25;91984.53;;;0.94;82.57
20628;BME280;10473;42.734;24.258;2023-01-29T08:42:56;91983.00;;;0.85;82.25
20628;BME280;10473;42.734;24.258;2023-01-29T08:45:25;91964.88;;;0.72;82.42
20628;BME280;10473;42.734;24.258;2023-01-29T08:47:55;91962.13;;;0.77;81.55
20628;BME280;10473;42.734;24.258;2023-01-29T08:50:23;91995.47;;;1.05;81.61
20628;BME280;10473;42.734;24.258;2023-01-29T08:52:56;91996.69;;;1.08;81.07
20628;BME280;10473;42.734;24.258;2023-01-29T08:55:24;92002.06;;;1.19;81.20
20628;BME280;10473;42.734;24.258;2023-01-29T08:57:51;91987.94;;;1.03;81.20
20628;BME280;10473;42.734;24.258;2023-01-29T09:00:20;92006.84;;;1.17;80.49
20628;BME280;10473;42.734;24.258;2023-01-29T09:02:47;92009.75;;;1.24;81.12
20628;BME280;10473;42.734;24.258;2023-01-29T09:05:16;92005.31;;;1.17;81.20
20628;BME280;10473;42.734;24.258;2023-01-29T09:07:44;92003.59;;;1.12;81.46
20628;BME280;10473;42.734;24.258;2023-01-29T09:10:13;92001.91;;;1.24;81.96
20628;BME280;10473;42.734;24.258;2023-01-29T09:12:41;92009.72;;;1.08;81.47
20628;BME280;10473;42.734;24.258;2023-01-29T09:15:10;92006.25;;;1.29;81.38
20628;BME280;10473;42.734;24.258;2023-01-29T09:17:38;92004.56;;;1.42;80.77
20628;BME280;10473;42.734;24.258;2023-01-29T09:20:07;92002.34;;;1.01;81.50
20628;BME280;10473;42.734;24.258;2023-01-29T09:22:36;92001.78;;;1.29;80.75
20628;BME280;10473;42.734;24.258;2023-01-29T09:25:05;92015.75;;;1.42;80.50
20628;BME280;10473;42.734;24.258;2023-01-29T09:27:33;92010.41;;;1.56;79.52
20628;BME280;10473;42.734;24.258;2023-01-29T09:30:00;92013.47;;;1.58;79.97
20628;BME280;10473;42.734;24.258;2023-01-29T09:32:28;92010.56;;;1.51;79.19
20628;BME280;10473;42.734;24.258;2023-01-29T09:34:56;91997.66;;;1.54;79.52
20628;BME280;10473;42.734;24.258;2023-01-29T09:37:24;92001.63;;;1.60;79.33
20628;BME280;10473;42.734;24.258;2023-01-29T09:39:53;91999.66;;;1.66;79.33
20628;BME280;10473;42.734;24.258;2023-01-29T09:42:24;91997.31;;;1.73;79.15
20628;BME280;10473;42.734;24.258;2023-01-29T09:45:01;91995.78;;;1.72;79.05
20628;BME280;10473;42.734;24.258;2023-01-29T09:47:32;91992.56;;;1.58;78.89
20628;BME280;10473;42.734;24.258;2023-01-29T09:50:05;91995.94;;;1.83;78.45
20628;BME280;10473;42.734;24.258;2023-01-29T09:52:35;91998.66;;;2.04;78.16
20628;BME280;10473;42.734;24.258;2023-01-29T09:55:13;91997.63;;;1.97;77.57
20628;BME280;10473;42.734;24.258;2023-01-29T09:57:47;91990.06;;;2.12;77.17
20628;BME280;10473;42.734;24.258;2023-01-29T10:00:21;91983.09;;;2.16;75.71
20628;BME280;10473;42.734;24.258;2023-01-29T10:03:03;91988.00;;;2.26;74.70
20628;BME280;10473;42.734;24.258;2023-01-29T10:05:49;91989.34;;;2.41;74.84
20628;BME280;10473;42.734;24.258;2023-01-29T10:11:29;91987.66;;;2.45;75.07
20628;BME280;10473;42.734;24.258;2023-01-29T10:14:06;91985.72;;;2.25;74.76
20628;BME280;10473;42.734;24.258;2023-01-29T10:16:45;91975.94;;;2.05;74.62
20628;BME280;10473;42.734;24.258;2023-01-29T10:19:33;91974.53;;;1.98;74.93
20628;BME280;10473;42.734;24.258;2023-01-29T10:22:30;91976.72;;;1.88;75.41
20628;BME280;10473;42.734;24.258;2023-01-29T10:25:05;91971.94;;;1.98;75.15
20628;BME280;10473;42.734;24.258;2023-01-29T10:27:36;91969.94;;;2.04;76.54
20628;BME280;10473;42.734;24.258;2023-01-29T10:30:07;91978.56;;;2.05;75.81
20628;BME280;10473;42.734;24.258;2023-01-29T10:32:36;91967.34;;;1.96;76.91
20628;BME280;10473;42.734;24.258;2023-01-29T10:35:12;91971.88;;;2.24;76.51
20628;BME280;10473;42.734;24.258;2023-01-29T10:37:42;91970.66;;;2.22;75.71
20628;BME280;10473;42.734;24.258;2023-01-29T10:40:17;91969.25;;;2.24;76.04
20628;BME280;10473;42.734;24.258;2023-01-29T10:42:51;91943.34;;;2.11;75.75
20628;BME280;10473;42.734;24.258;2023-01-29T10:45:29;91952.78;;;1.77;77.19
20628;BME280;10473;42.734;24.258;2023-01-29T10:51:11;91965.19;;;1.98;75.44
20628;BME280;10473;42.734;24.258;2023-01-29T10:53:51;91969.00;;;2.17;75.93
20628;BME280;10473;42.734;24.258;2023-01-29T10:56:32;91964.31;;;2.31;76.84
20628;BME280;10473;42.734;24.258;2023-01-29T10:59:07;91955.13;;;2.25;76.36
20628;BME280;10473;42.734;24.258;2023-01-29T11:01:38;91957.75;;;2.17;76.07
20628;BME280;10473;42.734;24.258;2023-01-29T11:04:08;91954.81;;;2.27;75.67
20628;BME280;10473;42.734;24.258;2023-01-29T11:06:38;91951.69;;;2.42;75.42
20628;BME280;10473;42.734;24.258;2023-01-29T11:09:10;91944.44;;;2.38;75.36
20628;BME280;10473;42.734;24.258;2023-01-29T11:11:47;91946.31;;;2.38;75.69
20628;BME280;10473;42.734;24.258;2023-01-29T11:14:21;91946.03;;;2.69;74.81
20628;BME280;10473;42.734;24.258;2023-01-29T11:16:52;91955.03;;;2.80;70.96
20628;BME280;10473;42.734;24.258;2023-01-29T11:19:36;91945.31;;;2.60;70.87
20628;BME280;10473;42.734;24.258;2023-01-29T11:22:12;91949.03;;;2.79;70.54
20628;BME280;10473;42.734;24.258;2023-01-29T11:24:40;91951.75;;;2.91;68.88
20628;BME280;10473;42.734;24.258;2023-01-29T11:27:20;91918.59;;;2.75;70.40
20628;BME280;10473;42.734;24.258;2023-01-29T11:29:52;91925.91;;;2.90;69.74
20628;BME280;10473;42.734;24.258;2023-01-29T11:32:32;91931.47;;;3.09;69.58
20628;BME280;10473;42.734;24.258;2023-01-29T11:35:02;91933.75;;;3.10;68.86
20628;BME280;10473;42.734;24.258;2023-01-29T11:37:34;91924.56;;;3.04;68.04
20628;BME280;10473;42.734;24.258;2023-01-29T11:40:32;91905.94;;;3.06;69.10
20628;BME280;10473;42.734;24.258;2023-01-29T11:43:11;91929.81;;;3.04;66.90
20628;BME280;10473;42.734;24.258;2023-01-29T11:45:41;91923.09;;;2.95;68.77
20628;BME280;10473;42.734;24.258;2023-01-29T11:48:13;91916.91;;;2.99;68.22
20628;BME280;10473;42.734;24.258;2023-01-29T11:50:43;91907.41;;;3.15;67.92
20628;BME280;10473;42.734;24.258;2023-01-29T11:53:23;91909.88;;;3.12;68.99
20628;BME280;10473;42.734;24.258;2023-01-29T11:55:52;91911.06;;;3.23;67.70
20628;BME280;10473;42.734;24.258;2023-01-29T11:58:26;91912.63;;;3.15;68.00
20628;BME280;10473;42.734;24.258;2023-01-29T12:00:57;91903.91;;;3.11;68.32
20628;BME280;10473;42.734;24.258;2023-01-29T12:03:32;91922.28;;;3.44;66.48
20628;BME280;10473;42.734;24.258;2023-01-29T12:06:04;91909.91;;;3.53;64.68
20628;BME280;10473;42.734;24.258;2023-01-29T12:08:35;91928.09;;;3.82;66.10
20628;BME280;10473;42.734;24.258;2023-01-29T12:11:09;91920.69;;;3.84;64.50
20628;BME280;10473;42.734;24.258;2023-01-29T12:13:37;91920.19;;;4.02;63.99
20628;BME280;10473;42.734;24.258;2023-01-29T12:16:16;91910.81;;;3.69;64.47
20628;BME280;10473;42.734;24.258;2023-01-29T12:18:50;91925.53;;;3.94;63.84
20628;BME280;10473;42.734;24.258;2023-01-29T12:21:25;91925.59;;;4.18;62.53
20628;BME280;10473;42.734;24.258;2023-01-29T12:24:02;91917.69;;;4.06;64.02
20628;BME280;10473;42.734;24.258;2023-01-29T12:26:33;91909.19;;;3.44;64.32
20628;BME280;10473;42.734;24.258;2023-01-29T12:29:13;91923.91;;;3.69;63.88
20628;BME280;10473;42.734;24.258;2023-01-29T12:31:50;91927.47;;;3.64;65.06
20628;BME280;10473;42.734;24.258;2023-01-29T12:34:26;91914.59;;;3.59;64.85
20628;BME280;10473;42.734;24.258;2023-01-29T12:37:01;91936.44;;;3.96;63.36
20628;BME280;10473;42.734;24.258;2023-01-29T12:39:33;91924.53;;;3.66;65.41
20628;BME280;10473;42.734;24.258;2023-01-29T12:42:07;91928.56;;;3.84;63.97
20628;BME280;10473;42.734;24.258;2023-01-29T12:44:39;91932.28;;;3.95;64.05
20628;BME280;10473;42.734;24.258;2023-01-29T12:47:16;91929.06;;;3.77;62.90
20628;BME280;10473;42.734;24.258;2023-01-29T12:49:50;91932.06;;;3.88;62.43
20628;BME280;10473;42.734;24.258;2023-01-29T12:52:22;91929.34;;;3.96;63.59
20628;BME280;10473;42.734;24.258;2023-01-29T12:54:58;91934.19;;;4.06;63.31
20628;BME280;10473;42.734;24.258;2023-01-29T12:57:45;91925.75;;;4.01;63.06
20628;BME280;10473;42.734;24.258;2023-01-29T13:00:17;91916.63;;;4.19;63.65
20628;BME280;10473;42.734;24.258;2023-01-29T13:02:53;91904.97;;;3.84;64.12
20628;BME280;10473;42.734;24.258;2023-01-29T13:05:25;91923.81;;;4.10;63.45
20628;BME280;10473;42.734;24.258;2023-01-29T13:07:57;91919.91;;;4.28;62.92
20628;BME280;10473;42.734;24.258;2023-01-29T13:10:31;91916.53;;;5.11;62.37
20628;BME280;10473;42.734;24.258;2023-01-29T13:13:02;91918.88;;;6.23;59.37
20628;BME280;10473;42.734;24.258;2023-01-29T13:15:34;91921.81;;;7.30;58.44
20628;BME280;10473;42.734;24.258;2023-01-29T13:18:32;91927.91;;;7.87;55.37
20628;BME280;10473;42.734;24.258;2023-01-29T13:21:04;91929.53;;;7.92;54.19
20628;BME280;10473;42.734;24.258;2023-01-29T13:23:36;91921.28;;;7.40;53.33
20628;BME280;10473;42.734;24.258;2023-01-29T13:26:04;91926.28;;;7.45;52.53
20628;BME280;10473;42.734;24.258;2023-01-29T13:28:33;91914.84;;;7.03;53.00
20628;BME280;10473;42.734;24.258;2023-01-29T13:31:11;91897.09;;;6.22;53.97